Time;durP1;ratioP1;P1;durP2;ratioP2;P2;SDS_P1;SDS_P2;PMS_P1;PMS_P2;Temp;Humidity;BMP_temperature;BMP_pressure;BME280_temperature;BME280_humidity;BME280_pressure;Samples;Min_cycle;Max_cycle;Signal;HPM_P1;HPM_P2
2023/07/07 00:01:57;;;;;;;21.15;20.02;;;;;;;;;;5012534;28;20038;-68
2023/07/07 00:04:23;;;;;;;19.90;18.80;;;;;;;;;;5007470;28;20029;-67
2023/07/07 00:06:49;;;;;;;19.17;18.08;;;;;;;;;;5011989;28;20455;-67
2023/07/07 00:09:14;;;;;;;20.17;19.08;;;;;;;;;;5011798;28;20037;-68
2023/07/07 00:11:40;;;;;;;19.95;18.85;;;;;;;;;;5011063;28;20060;-67
2023/07/07 00:14:05;;;;;;;21.95;20.75;;;;;;;;;;5007833;28;20376;-68
2023/07/07 00:16:30;;;;;;;22.27;21.08;;;;;;;;;;5009126;28;20487;-68
2023/07/07 00:18:59;;;;;;;23.75;22.25;;;;;;;;;;5013382;28;20076;-68
2023/07/07 00:21:25;;;;;;;21.75;20.58;;;;;;;;;;5012059;28;20364;-68
2023/07/07 00:23:53;;;;;;;22.55;21.27;;;;;;;;;;5014133;28;20040;-68
2023/07/07 00:26:19;;;;;;;23.27;21.95;;;;;;;;;;5010626;28;20242;-68
2023/07/07 00:28:45;;;;;;;23.60;22.30;;;;;;;;;;5008625;28;20364;-68
2023/07/07 00:31:10;;;;;;;22.38;21.15;;;;;;;;;;5013087;28;20210;-68
2023/07/07 00:33:35;;;;;;;25.60;24.20;;;;;;;;;;5011210;28;20104;-68
2023/07/07 00:36:00;;;;;;;24.48;23.13;;;;;;;;;;5014179;28;20100;-68
2023/07/07 00:38:26;;;;;;;22.38;21.17;;;;;;;;;;5015818;28;20121;-68
2023/07/07 00:40:52;;;;;;;24.08;22.70;;;;;;;;;;5016572;28;20053;-68
2023/07/07 00:43:19;;;;;;;24.25;22.95;;;;;;;;;;5012280;28;20094;-68
2023/07/07 00:45:45;;;;;;;24.25;22.95;;;;;;;;;;5013405;28;20029;-68
2023/07/07 00:48:18;;;;;;;24.98;23.65;;;;;;;;;;5014141;28;20045;-68
2023/07/07 00:50:51;;;;;;;22.25;21.05;;;;;;;;;;5016577;28;20668;-68
2023/07/07 00:53:17;;;;;;;23.02;21.77;;;;;;;;;;5013318;28;20061;-68
2023/07/07 00:55:49;;;;;;;24.20;22.90;;;;;;;;;;5014434;28;20637;-68
2023/07/07 00:58:20;;;;;;;23.83;22.55;;;;;;;;;;5013339;28;20041;-68
2023/07/07 01:00:47;;;;;;;;;;;;;;;;;;5015258;28;20138;-68
2023/07/07 01:03:22;;;;;;;19.02;17.98;;;;;;;;;;5015345;28;20164;-68
2023/07/07 01:05:49;;;;;;;21.33;20.15;;;;;;;;;;5016186;28;20340;-68
2023/07/07 01:08:16;;;;;;;20.65;19.55;;;;;;;;;;5017527;28;20044;-68
2023/07/07 01:10:42;;;;;;;21.73;20.52;;;;;;;;;;5015252;28;20038;-68
2023/07/07 01:13:07;;;;;;;23.17;21.88;;;;;;;;;;5013177;28;20355;-68
2023/07/07 01:15:42;;;;;;;22.30;21.10;;;;;;;;;;5014043;28;20033;-68
2023/07/07 01:18:19;;;;;;;20.73;19.60;;;;;;;;;;5014659;28;20035;-67
2023/07/07 01:21:02;;;;;;;21.38;20.23;;;;;;;;;;5011539;28;20494;-68
2023/07/07 01:23:49;;;;;;;20.02;18.83;;;;;;;;;;5015700;28;20045;-68
2023/07/07 01:26:26;;;;;;;17.33;16.35;;;;;;;;;;5015386;28;20140;-68
2023/07/07 01:29:03;;;;;;;17.42;16.42;;;;;;;;;;5010816;28;20120;-67
2023/07/07 01:31:40;;;;;;;15.45;14.55;;;;;;;;;;5012836;28;20121;-68
2023/07/07 01:34:09;;;;;;;14.40;13.60;;;;;;;;;;5014420;28;20026;-68
2023/07/07 01:36:34;;;;;;;13.65;12.85;;;;;;;;;;5014495;28;20034;-67
2023/07/07 01:39:00;;;;;;;12.23;11.52;;;;;;;;;;5015365;28;20022;-68
2023/07/07 01:41:39;;;;;;;11.82;11.07;;;;;;;;;;5012157;28;20479;-67
2023/07/07 01:44:37;;;;;;;11.05;10.35;;;;;;;;;;5010071;28;20443;-68
2023/07/07 01:47:13;;;;;;;11.10;10.40;;;;;;;;;;5012751;28;20038;-68
2023/07/07 01:50:01;;;;;;;12.27;11.48;;;;;;;;;;5016340;28;20112;-68
2023/07/07 01:52:26;;;;;;;11.80;11.10;;;;;;;;;;5012897;28;20384;-67
2023/07/07 01:54:57;;;;;;;11.57;10.88;;;;;;;;;;5013931;28;20038;-68
2023/07/07 01:57:25;;;;;;;13.68;12.65;;;;;;;;;;5012904;28;20048;-68
2023/07/07 01:59:51;;;;;;;13.57;12.77;;;;;;;;;;5012397;28;20541;-68
2023/07/07 02:02:16;;;;;;;14.13;13.32;;;;;;;;;;5013530;28;20037;-68
2023/07/07 02:04:41;;;;;;;12.98;12.18;;;;;;;;;;5014463;28;20117;-67
2023/07/07 02:07:07;;;;;;;12.68;11.95;;;;;;;;;;5014165;28;20400;-68
2023/07/07 02:09:33;;;;;;;11.90;11.20;;;;;;;;;;5013078;28;20029;-67
2023/07/07 02:11:58;;;;;;;11.43;10.73;;;;;;;;;;5011201;28;20065;-68
2023/07/07 02:14:24;;;;;;;12.98;12.18;;;;;;;;;;5011641;28;20061;-67
2023/07/07 02:16:49;;;;;;;15.38;14.45;;;;;;;;;;5018377;28;20060;-68
2023/07/07 02:19:15;;;;;;;16.10;15.20;;;;;;;;;;5014430;28;20065;-67
2023/07/07 02:21:41;;;;;;;17.27;16.30;;;;;;;;;;5016652;28;20444;-67
2023/07/07 02:24:06;;;;;;;19.65;18.58;;;;;;;;;;5012296;28;20519;-69
2023/07/07 02:26:31;;;;;;;22.10;20.90;;;;;;;;;;5016763;28;20121;-68
2023/07/07 02:28:57;;;;;;;18.65;17.63;;;;;;;;;;5015819;28;20125;-67
2023/07/07 02:31:24;;;;;;;20.92;19.77;;;;;;;;;;5014269;28;20487;-68
2023/07/07 02:33:50;;;;;;;17.35;16.35;;;;;;;;;;5016225;28;20119;-68
2023/07/07 02:36:18;;;;;;;17.23;16.23;;;;;;;;;;5014418;28;20096;-68
2023/07/07 02:38:44;;;;;;;17.38;16.40;;;;;;;;;;5014498;28;20040;-68
2023/07/07 02:41:10;;;;;;;15.20;14.27;;;;;;;;;;5014300;28;20104;-68
2023/07/07 02:43:36;;;;;;;15.45;14.55;;;;;;;;;;5011788;28;20052;-68
2023/07/07 02:46:01;;;;;;;13.80;13.00;;;;;;;;;;5013047;28;20522;-67
2023/07/07 02:48:26;;;;;;;12.75;11.95;;;;;;;;;;5009670;28;20041;-67
2023/07/07 02:51:03;;;;;;;12.20;11.50;;;;;;;;;;5012707;28;20586;-68
2023/07/07 02:53:31;;;;;;;12.63;11.82;;;;;;;;;;5010456;28;20029;-68
2023/07/07 02:55:57;;;;;;;12.10;11.23;;;;;;;;;;5012580;28;20407;-67
2023/07/07 02:58:23;;;;;;;12.18;11.48;;;;;;;;;;5012994;28;20049;-68
2023/07/07 03:00:49;;;;;;;11.45;10.55;;;;;;;;;;5013122;28;20056;-68
2023/07/07 03:03:15;;;;;;;13.18;12.30;;;;;;;;;;5020136;28;20095;-67
2023/07/07 03:05:42;;;;;;;11.80;11.10;;;;;;;;;;5016910;28;20041;-68
2023/07/07 03:08:08;;;;;;;11.93;11.23;;;;;;;;;;5013777;28;20454;-68
2023/07/07 03:10:35;;;;;;;11.35;10.65;;;;;;;;;;5013445;28;20073;-68
2023/07/07 03:13:00;;;;;;;12.27;11.43;;;;;;;;;;5012502;28;20478;-68
2023/07/07 03:15:38;;;;;;;12.15;11.35;;;;;;;;;;5010624;28;20033;-68
2023/07/07 03:18:07;;;;;;;11.75;11.02;;;;;;;;;;5013772;28;20526;-68
2023/07/07 03:20:33;;;;;;;11.45;10.75;;;;;;;;;;5017141;28;20196;-68
2023/07/07 03:22:58;;;;;;;13.43;12.63;;;;;;;;;;5010680;28;20029;-68
2023/07/07 03:25:27;;;;;;;11.77;11.07;;;;;;;;;;5008483;28;20423;-68
2023/07/07 03:27:52;;;;;;;11.63;10.93;;;;;;;;;;5009901;28;20048;-68
2023/07/07 03:30:17;;;;;;;11.77;11.07;;;;;;;;;;5010389;28;20387;-68
2023/07/07 03:32:43;;;;;;;12.40;11.70;;;;;;;;;;5015768;28;20052;-68
2023/07/07 03:35:08;;;;;;;13.00;12.20;;;;;;;;;;5010038;28;20083;-68
2023/07/07 03:37:36;;;;;;;13.75;12.85;;;;;;;;;;5011734;28;20026;-68
2023/07/07 03:40:01;;;;;;;12.93;12.15;;;;;;;;;;5010885;28;20128;-68
2023/07/07 03:42:26;;;;;;;13.48;12.68;;;;;;;;;;5011962;28;20113;-68
2023/07/07 03:44:52;;;;;;;13.38;12.57;;;;;;;;;;5011949;28;20169;-68
2023/07/07 03:47:17;;;;;;;13.07;12.27;;;;;;;;;;5018149;28;20060;-68
2023/07/07 03:49:42;;;;;;;13.73;12.93;;;;;;;;;;5013703;28;20120;-68
2023/07/07 03:52:08;;;;;;;12.27;11.57;;;;;;;;;;5013339;28;20108;-68
2023/07/07 03:54:33;;;;;;;14.07;13.27;;;;;;;;;;5010532;28;20037;-68
2023/07/07 03:56:58;;;;;;;13.48;12.68;;;;;;;;;;5010870;28;20026;-68
2023/07/07 03:59:25;;;;;;;12.63;11.93;;;;;;;;;;5014236;28;20044;-68
2023/07/07 04:01:51;;;;;;;13.27;12.48;;;;;;;;;;5011407;28;20030;-68
2023/07/07 04:04:16;;;;;;;12.80;12.02;;;;;;;;;;5013399;28;20099;-68
2023/07/07 04:06:41;;;;;;;13.45;12.57;;;;;;;;;;5013187;28;20083;-68
2023/07/07 04:09:07;;;;;;;12.50;11.75;;;;;;;;;;5012199;28;20217;-68
2023/07/07 04:11:32;;;;;;;12.07;11.38;;;;;;;;;;5011468;28;20408;-68
2023/07/07 04:13:57;;;;;;;11.93;11.23;;;;;;;;;;5013715;28;20048;-69
2023/07/07 04:16:25;;;;;;;11.82;11.10;;;;;;;;;;5011088;28;20018;-68
2023/07/07 04:18:53;;;;;;;12.35;11.65;;;;;;;;;;5011185;28;20026;-68
2023/07/07 04:21:25;;;;;;;13.02;12.23;;;;;;;;;;5013533;28;20543;-68
2023/07/07 04:23:53;;;;;;;11.50;10.80;;;;;;;;;;5011966;28;20057;-68
2023/07/07 04:26:19;;;;;;;11.88;11.18;;;;;;;;;;5007276;28;20048;-68
2023/07/07 04:28:45;;;;;;;11.82;11.13;;;;;;;;;;5008333;28;20402;-67
2023/07/07 04:31:11;;;;;;;11.65;10.95;;;;;;;;;;5009814;28;20037;-68
2023/07/07 04:33:38;;;;;;;12.10;11.40;;;;;;;;;;5009500;28;20427;-68
2023/07/07 04:36:06;;;;;;;13.68;12.85;;;;;;;;;;5011565;28;20360;-68
2023/07/07 04:38:32;;;;;;;12.27;11.48;;;;;;;;;;5012166;28;20095;-68
2023/07/07 04:41:21;;;;;;;12.88;12.07;;;;;;;;;;5009934;28;20371;-68
2023/07/07 04:43:50;;;;;;;11.40;10.70;;;;;;;;;;5005242;28;20037;-67
2023/07/07 04:46:19;;;;;;;12.75;12.00;;;;;;;;;;5007539;28;20034;-70
2023/07/07 04:48:45;;;;;;;13.30;12.50;;;;;;;;;;5008342;28;20561;-70
2023/07/07 04:51:12;;;;;;;13.32;12.52;;;;;;;;;;5002820;28;20038;-69
2023/07/07 04:53:39;;;;;;;13.57;12.77;;;;;;;;;;5006363;28;20037;-70
2023/07/07 04:56:09;;;;;;;12.90;12.15;;;;;;;;;;5008710;28;20042;-70
2023/07/07 04:58:36;;;;;;;13.90;13.10;;;;;;;;;;5014995;28;20709;-70
2023/07/07 05:01:06;;;;;;;13.35;12.55;;;;;;;;;;5011998;28;20033;-70
2023/07/07 05:03:31;;;;;;;14.20;13.37;;;;;;;;;;5007425;28;20108;-70
2023/07/07 05:05:57;;;;;;;13.90;13.00;;;;;;;;;;5010438;28;20359;-71
2023/07/07 05:08:22;;;;;;;15.18;14.23;;;;;;;;;;5009442;28;20124;-71
2023/07/07 05:10:48;;;;;;;15.73;14.82;;;;;;;;;;5015545;28;20025;-71
2023/07/07 05:13:14;;;;;;;15.85;14.85;;;;;;;;;;5020786;28;20045;-70
2023/07/07 05:15:39;;;;;;;15.90;15.00;;;;;;;;;;5016437;28;20021;-70
2023/07/07 05:18:04;;;;;;;24.80;15.52;;;;;;;;;;5007520;28;20033;-70
2023/07/07 05:20:30;;;;;;;15.82;14.82;;;;;;;;;;5009680;28;20561;-70
2023/07/07 05:22:55;;;;;;;13.45;12.65;;;;;;;;;;5015151;28;20033;-70
2023/07/07 05:25:20;;;;;;;13.43;12.63;;;;;;;;;;5015387;28;20064;-70
2023/07/07 05:27:46;;;;;;;13.02;12.23;;;;;;;;;;5015934;28;20034;-71
2023/07/07 05:30:12;;;;;;;14.52;13.70;;;;;;;;;;5010948;28;20044;-69
2023/07/07 05:32:37;;;;;;;15.57;14.57;;;;;;;;;;5012934;28;20349;-70
2023/07/07 05:35:02;;;;;;;15.85;14.95;;;;;;;;;;5014879;28;20413;-70
2023/07/07 05:37:28;;;;;;;16.77;15.88;;;;;;;;;;5014792;28;20030;-70
2023/07/07 05:39:53;;;;;;;16.92;15.95;;;;;;;;;;5014724;28;20621;-70
2023/07/07 05:42:18;;;;;;;17.65;16.65;;;;;;;;;;5014563;28;20661;-69
2023/07/07 05:44:44;;;;;;;18.00;16.80;;;;;;;;;;5013729;28;20025;-71
2023/07/07 05:47:09;;;;;;;13.77;12.98;;;;;;;;;;5013022;28;20027;-70
2023/07/07 05:49:34;;;;;;;15.27;14.38;;;;;;;;;;5013753;28;20035;-70
2023/07/07 05:52:00;;;;;;;14.93;14.02;;;;;;;;;;5010906;28;20388;-71
2023/07/07 05:54:25;;;;;;;17.80;16.80;;;;;;;;;;5017980;28;20480;-71
2023/07/07 05:56:51;;;;;;;18.13;17.13;;;;;;;;;;5014198;28;20410;-71
2023/07/07 05:59:16;;;;;;;15.25;14.35;;;;;;;;;;5014461;28;20459;-71
2023/07/07 06:01:41;;;;;;;20.70;19.52;;;;;;;;;;5010676;28;20563;-70
2023/07/07 06:04:07;;;;;;;21.00;19.50;;;;;;;;;;5008883;28;20390;-70
2023/07/07 06:06:32;;;;;;;25.05;23.70;;;;;;;;;;5014414;28;20029;-70
2023/07/07 06:08:57;;;;;;;21.80;20.63;;;;;;;;;;5011388;28;20041;-70
2023/07/07 06:11:23;;;;;;;36.45;34.55;;;;;;;;;;5012752;28;20037;-71
2023/07/07 06:13:48;;;;;;;30.52;28.95;;;;;;;;;;5013301;28;20029;-71
2023/07/07 06:16:14;;;;;;;30.30;28.73;;;;;;;;;;5013152;28;20125;-71
2023/07/07 06:18:39;;;;;;;42.80;40.63;;;;;;;;;;5012915;28;20113;-70
2023/07/07 06:21:05;;;;;;;41.35;39.22;;;;;;;;;;5014571;28;20033;-70
2023/07/07 06:23:31;;;;;;;41.88;39.70;;;;;;;;;;5012918;28;20037;-71
2023/07/07 06:25:57;;;;;;;42.15;40.00;;;;;;;;;;5012555;28;20446;-70
2023/07/07 06:28:23;;;;;;;41.28;39.13;;;;;;;;;;5012362;28;20037;-68
2023/07/07 06:30:49;;;;;;;32.65;30.98;;;;;;;;;;5012235;28;20048;-69
2023/07/07 06:33:16;;;;;;;27.02;25.63;;;;;;;;;;5011270;28;20037;-68
2023/07/07 06:35:42;;;;;;;28.67;27.10;;;;;;;;;;5010816;28;20017;-68
2023/07/07 06:38:08;;;;;;;31.13;29.15;;;;;;;;;;5020658;28;20052;-68
2023/07/07 06:40:34;;;;;;;25.10;23.70;;;;;;;;;;5016684;28;20034;-69
2023/07/07 06:43:00;;;;;;;24.10;22.73;;;;;;;;;;5011294;28;20030;-68
2023/07/07 06:45:26;;;;;;;23.83;22.52;;;;;;;;;;5009649;28;20057;-68
2023/07/07 06:47:51;;;;;;;27.38;25.95;;;;;;;;;;5012530;28;20041;-67
2023/07/07 06:50:26;;;;;;;23.95;22.52;;;;;;;;;;5012257;28;20472;-68
2023/07/07 06:52:51;;;;;;;26.83;25.40;;;;;;;;;;5013767;28;20081;-68
2023/07/07 06:55:16;;;;;;;33.05;31.35;;;;;;;;;;5014232;28;20041;-70
2023/07/07 06:57:42;;;;;;;30.73;29.15;;;;;;;;;;5015592;28;20101;-69
2023/07/07 07:00:07;;;;;;;34.08;32.28;;;;;;;;;;5010239;28;20037;-69
2023/07/07 07:02:33;;;;;;;34.85;33.05;;;;;;;;;;5015938;28;20376;-68
2023/07/07 07:04:58;;;;;;;38.65;36.50;;;;;;;;;;5014689;28;20036;-69
2023/07/07 07:07:23;;;;;;;38.45;36.40;;;;;;;;;;5010597;28;20029;-69
2023/07/07 07:09:49;;;;;;;40.63;38.55;;;;;;;;;;5016227;28;20034;-71
2023/07/07 07:12:14;;;;;;;37.58;35.65;;;;;;;;;;5010702;28;20075;-69
2023/07/07 07:14:39;;;;;;;45.03;42.72;;;;;;;;;;5014259;28;20029;-69
2023/07/07 07:17:05;;;;;;;50.35;47.83;;;;;;;;;;5010132;28;20364;-70
2023/07/07 07:19:30;;;;;;;50.05;47.50;;;;;;;;;;5013800;28;20430;-70
2023/07/07 07:21:56;;;;;;;52.80;50.15;;;;;;;;;;5013507;28;20167;-69
2023/07/07 07:24:24;;;;;;;55.78;52.95;;;;;;;;;;5016726;28;20094;-69
2023/07/07 07:26:49;;;;;;;81.45;77.43;;;;;;;;;;5014246;28;20062;-70
2023/07/07 07:29:14;;;;;;;97.95;93.13;;;;;;;;;;5012872;28;20137;-69
2023/07/07 07:31:41;;;;;;;96.22;91.53;;;;;;;;;;5011993;28;20026;-69
2023/07/07 07:34:22;;;;;;;81.93;77.88;;;;;;;;;;5008862;28;20040;-69
2023/07/07 07:36:48;;;;;;;85.20;81.03;;;;;;;;;;5012503;28;20041;-69
2023/07/07 07:39:14;;;;;;;71.47;67.25;;;;;;;;;;5011057;28;20037;-69
2023/07/07 07:41:39;;;;;;;107.90;102.50;;;;;;;;;;5011142;28;20032;-67
2023/07/07 07:44:05;;;;;;;68.28;64.90;;;;;;;;;;5011492;28;20026;-67
2023/07/07 07:46:30;;;;;;;75.85;71.95;;;;;;;;;;5010700;28;20495;-67
2023/07/07 07:48:55;;;;;;;66.43;63.10;;;;;;;;;;5010488;28;20025;-67
2023/07/07 07:51:21;;;;;;;104.97;99.82;;;;;;;;;;5011362;28;20034;-68
2023/07/07 07:53:46;;;;;;;93.32;88.75;;;;;;;;;;5012282;28;20037;-67
2023/07/07 07:56:11;;;;;;;65.85;62.55;;;;;;;;;;5010732;28;20494;-67
2023/07/07 07:58:37;;;;;;;62.72;59.58;;;;;;;;;;5009109;28;20435;-67
2023/07/07 08:01:03;;;;;;;68.90;65.45;;;;;;;;;;5010597;28;20502;-67
2023/07/07 08:03:28;;;;;;;72.10;68.53;;;;;;;;;;5005756;28;21261;-67
2023/07/07 08:05:53;;;;;;;67.47;64.10;;;;;;;;;;5012007;28;20467;-67
2023/07/07 08:08:19;;;;;;;70.45;66.90;;;;;;;;;;5011821;28;20037;-68
2023/07/07 08:10:44;;;;;;;81.78;77.72;;;;;;;;;;5010903;28;20021;-67
2023/07/07 08:13:10;;;;;;;112.50;106.95;;;;;;;;;;5013208;28;20282;-67
2023/07/07 08:15:35;;;;;;;117.05;111.22;;;;;;;;;;5012001;28;20096;-67
2023/07/07 08:18:00;;;;;;;106.88;101.65;;;;;;;;;;5013451;28;20065;-67
2023/07/07 08:20:27;;;;;;;119.57;113.68;;;;;;;;;;5011669;28;20176;-68
2023/07/07 08:22:53;;;;;;;115.38;109.53;;;;;;;;;;5009379;28;20113;-68
2023/07/07 08:25:19;;;;;;;108.57;103.22;;;;;;;;;;5012452;28;20036;-67
2023/07/07 08:27:44;;;;;;;94.78;90.10;;;;;;;;;;5014165;28;20344;-67
2023/07/07 08:30:10;;;;;;;109.32;103.95;;;;;;;;;;5010425;28;20780;-67
2023/07/07 08:32:35;;;;;;;125.00;118.82;;;;;;;;;;5014448;28;20030;-68
2023/07/07 08:35:01;;;;;;;70.68;67.10;;;;;;;;;;5013925;28;20037;-67
2023/07/07 08:37:27;;;;;;;54.75;51.63;;;;;;;;;;5010351;28;20059;-68
2023/07/07 08:39:53;;;;;;;51.50;48.80;;;;;;;;;;5010967;28;20033;-68
2023/07/07 08:42:28;;;;;;;54.25;51.53;;;;;;;;;;5013683;28;20053;-67
2023/07/07 08:44:54;;;;;;;58.28;55.35;;;;;;;;;;5011734;28;20037;-67
2023/07/07 08:47:45;;;;;;;44.72;42.42;;;;;;;;;;5008022;28;20026;-67
2023/07/07 08:50:10;;;;;;;44.92;42.65;;;;;;;;;;5009296;28;20056;-68
2023/07/07 08:52:51;;;;;;;59.45;56.47;;;;;;;;;;5009745;28;20628;-68
2023/07/07 08:55:40;;;;;;;48.10;45.70;;;;;;;;;;5013733;28;20459;-68
2023/07/07 08:58:10;;;;;;;64.18;60.95;;;;;;;;;;5016962;28;20436;-68
2023/07/07 09:01:10;;;;;;;125.15;119.03;;;;;;;;;;5011831;28;20048;-68
2023/07/07 09:04:13;;;;;;;107.75;102.30;;;;;;;;;;5014416;28;20092;-68
2023/07/07 09:06:45;;;;;;;114.25;108.60;;;;;;;;;;5011317;28;21010;-68
2023/07/07 09:09:28;;;;;;;115.47;109.78;;;;;;;;;;5013076;28;20041;-69
2023/07/07 09:12:07;;;;;;;113.53;107.93;;;;;;;;;;5013867;28;20199;-69
2023/07/07 09:14:33;;;;;;;119.90;113.95;;;;;;;;;;5015526;28;20080;-68
2023/07/07 09:17:06;;;;;;;121.68;115.68;;;;;;;;;;5012564;28;20034;-70
2023/07/07 09:19:36;;;;;;;118.00;112.15;;;;;;;;;;5013338;28;20029;-68
2023/07/07 09:22:07;;;;;;;114.28;108.57;;;;;;;;;;5013037;28;20026;-69
2023/07/07 09:24:37;;;;;;;107.68;102.30;;;;;;;;;;5016617;28;20038;-68
2023/07/07 09:27:20;;;;;;;98.22;93.38;;;;;;;;;;5015265;28;20479;-68
2023/07/07 09:29:48;;;;;;;102.38;97.35;;;;;;;;;;5013260;28;20042;-68
2023/07/07 09:32:21;;;;;;;115.88;110.18;;;;;;;;;;5011208;28;20109;-69
2023/07/07 09:34:46;;;;;;;97.00;92.25;;;;;;;;;;5014845;28;20033;-69
2023/07/07 09:37:36;;;;;;;101.53;96.50;;;;;;;;;;5014301;28;20345;-68
2023/07/07 09:40:16;;;;;;;;;;;;;;;;;;5016144;28;20084;-68
2023/07/07 09:43:14;;;;;;;97.70;92.88;;;;;;;;;;5009902;28;19917;-68
2023/07/07 09:45:50;;;;;;;127.95;121.43;;;;;;;;;;5013942;28;20468;-67
2023/07/07 09:48:22;;;;;;;108.63;103.25;;;;;;;;;;5015402;28;20060;-68
2023/07/07 09:51:03;;;;;;;122.13;116.13;;;;;;;;;;5011663;28;20068;-68
2023/07/07 09:53:38;;;;;;;102.25;97.22;;;;;;;;;;5014169;28;20029;-68
2023/07/07 09:56:04;;;;;;;93.35;88.75;;;;;;;;;;5013242;28;20049;-68
2023/07/07 09:58:50;;;;;;;113.35;107.75;;;;;;;;;;5010700;28;20038;-68
2023/07/07 10:01:17;;;;;;;116.75;111.05;;;;;;;;;;5013786;28;20034;-68
2023/07/07 10:03:45;;;;;;;129.55;123.15;;;;;;;;;;5012871;28;20037;-68
2023/07/07 10:06:19;;;;;;;116.45;110.72;;;;;;;;;;5012869;28;20168;-68
2023/07/07 10:08:45;;;;;;;119.25;113.38;;;;;;;;;;5011679;28;20713;-68
2023/07/07 10:11:20;;;;;;;122.50;116.20;;;;;;;;;;5014598;28;20040;-67
2023/07/07 10:13:47;;;;;;;120.88;114.97;;;;;;;;;;5015026;28;20519;-69
2023/07/07 10:16:32;;;;;;;118.70;112.85;;;;;;;;;;5014289;28;20183;-69
2023/07/07 10:19:00;;;;;;;124.32;118.18;;;;;;;;;;5013194;28;20026;-68
2023/07/07 10:21:26;;;;;;;111.85;106.32;;;;;;;;;;5016414;28;20468;-69
2023/07/07 10:23:51;;;;;;;118.57;112.72;;;;;;;;;;5012890;28;20037;-69
2023/07/07 10:26:17;;;;;;;117.25;111.35;;;;;;;;;;5012546;28;20120;-69
2023/07/07 10:28:44;;;;;;;120.65;114.60;;;;;;;;;;5011824;28;20164;-69
2023/07/07 10:31:10;;;;;;;106.03;100.82;;;;;;;;;;5015108;28;20034;-69
2023/07/07 10:33:36;;;;;;;134.85;128.20;;;;;;;;;;5015750;28;20044;-69
2023/07/07 10:36:40;;;;;;;127.60;121.30;;;;;;;;;;5017369;28;20423;-68
2023/07/07 10:39:08;;;;;;;126.88;120.63;;;;;;;;;;4973524;28;20027;-69
2023/07/07 10:41:33;;;;;;;126.90;120.47;;;;;;;;;;5009483;28;20046;-69
2023/07/07 10:43:58;;;;;;;130.32;123.93;;;;;;;;;;5012183;28;20478;-68
2023/07/07 10:46:24;;;;;;;117.75;111.90;;;;;;;;;;5012536;28;20507;-69
2023/07/07 10:48:53;;;;;;;107.68;102.40;;;;;;;;;;5008143;28;20046;-68
2023/07/07 10:51:32;;;;;;;82.77;78.67;;;;;;;;;;5011080;28;20422;-68
2023/07/07 10:54:04;;;;;;;80.35;76.35;;;;;;;;;;5009995;28;20033;-69
2023/07/07 10:56:41;;;;;;;87.25;82.95;;;;;;;;;;5011631;28;20061;-68
2023/07/07 10:59:31;;;;;;;96.85;92.07;;;;;;;;;;5012767;28;20037;-69
2023/07/07 11:02:26;;;;;;;76.50;72.72;;;;;;;;;;5020515;28;20021;-68
2023/07/07 11:05:03;;;;;;;83.78;79.60;;;;;;;;;;5021437;28;20025;-69
2023/07/07 11:08:03;;;;;;;72.95;69.22;;;;;;;;;;5011819;28;20456;-68
2023/07/07 11:10:40;;;;;;;80.75;76.65;;;;;;;;;;5009249;28;20117;-68
2023/07/07 11:13:18;;;;;;;71.30;67.70;;;;;;;;;;5013043;28;20603;-67
2023/07/07 11:15:54;;;;;;;114.65;108.82;;;;;;;;;;5011804;28;20034;-68
2023/07/07 11:18:39;;;;;;;126.00;119.78;;;;;;;;;;5013623;28;20467;-67
2023/07/07 11:21:31;;;;;;;117.57;111.70;;;;;;;;;;5013972;28;20034;-68
2023/07/07 11:24:32;;;;;;;70.20;66.68;;;;;;;;;;5013337;28;20084;-68
2023/07/07 11:27:25;;;;;;;83.15;78.78;;;;;;;;;;5011833;28;20168;-68
2023/07/07 11:30:19;;;;;;;87.25;82.85;;;;;;;;;;5010530;28;20167;-68
2023/07/07 11:33:17;;;;;;;73.80;70.00;;;;;;;;;;4987320;28;20052;-69
2023/07/07 11:36:25;;;;;;;75.47;71.68;;;;;;;;;;5005179;28;20623;-69
2023/07/07 11:38:53;;;;;;;74.82;70.97;;;;;;;;;;5011772;28;20383;-70
2023/07/07 11:41:46;;;;;;;81.68;77.57;;;;;;;;;;5010341;28;20512;-70
2023/07/07 11:44:30;;;;;;;81.22;77.13;;;;;;;;;;5011685;28;20056;-69
2023/07/07 11:47:04;;;;;;;73.25;69.55;;;;;;;;;;5009778;28;20092;-71
2023/07/07 11:49:49;;;;;;;70.50;66.93;;;;;;;;;;5008517;28;20037;-68
2023/07/07 11:52:28;;;;;;;73.68;69.97;;;;;;;;;;5010942;28;20034;-68
2023/07/07 11:55:12;;;;;;;89.13;84.68;;;;;;;;;;5013934;28;20033;-68
2023/07/07 11:58:10;;;;;;;79.63;75.68;;;;;;;;;;5011476;28;20137;-69
2023/07/07 12:00:49;;;;;;;87.03;82.68;;;;;;;;;;4993119;28;20049;-68
2023/07/07 12:03:41;;;;;;;77.47;73.50;;;;;;;;;;5011084;28;20056;-68
2023/07/07 12:06:15;;;;;;;91.13;86.63;;;;;;;;;;5012198;28;20031;-68
2023/07/07 12:08:51;;;;;;;80.75;76.75;;;;;;;;;;5008696;28;20123;-68
2023/07/07 12:11:19;;;;;;;86.38;82.07;;;;;;;;;;5008373;28;20493;-68
2023/07/07 12:13:57;;;;;;;93.15;88.47;;;;;;;;;;5009452;28;20041;-69
2023/07/07 12:16:24;;;;;;;99.30;94.32;;;;;;;;;;5011820;28;20084;-68
2023/07/07 12:19:10;;;;;;;92.25;87.68;;;;;;;;;;5010431;28;20037;-70
2023/07/07 12:21:37;;;;;;;99.25;94.32;;;;;;;;;;5014460;28;20609;-68
2023/07/07 12:24:11;;;;;;;104.40;99.15;;;;;;;;;;5018301;28;20533;-70
2023/07/07 12:26:43;;;;;;;107.88;102.50;;;;;;;;;;5009995;28;20475;-69
2023/07/07 12:29:12;;;;;;;108.50;103.13;;;;;;;;;;5012502;28;20046;-66
2023/07/07 12:31:37;;;;;;;105.72;100.47;;;;;;;;;;5012294;28;20036;-68
2023/07/07 12:34:18;;;;;;;104.55;99.38;;;;;;;;;;5013084;28;20041;-68
2023/07/07 12:36:45;;;;;;;105.47;100.22;;;;;;;;;;5000188;28;20062;-67
2023/07/07 12:39:10;;;;;;;113.72;108.10;;;;;;;;;;5012769;28;20034;-68
2023/07/07 12:41:37;;;;;;;100.47;95.55;;;;;;;;;;5009417;28;20107;-67
2023/07/07 12:44:05;;;;;;;93.22;88.55;;;;;;;;;;5011988;28;20544;-67
2023/07/07 12:46:33;;;;;;;108.43;103.00;;;;;;;;;;5011028;28;20030;-67
2023/07/07 12:49:17;;;;;;;114.97;109.30;;;;;;;;;;5016232;28;20112;-68
2023/07/07 12:51:42;;;;;;;116.47;110.70;;;;;;;;;;5012575;28;20032;-68
2023/07/07 12:54:28;;;;;;;119.53;113.60;;;;;;;;;;5011747;28;20046;-69
2023/07/07 12:57:17;;;;;;;126.85;120.63;;;;;;;;;;5012650;28;20033;-70
2023/07/07 12:59:43;;;;;;;;;;;;;;;;;;5021176;28;20141;-68
2023/07/07 13:02:24;;;;;;;124.18;118.05;;;;;;;;;;5014171;28;20004;-68
2023/07/07 13:05:22;;;;;;;132.68;126.07;;;;;;;;;;5013929;28;20036;-68
2023/07/07 13:07:59;;;;;;;130.07;123.65;;;;;;;;;;5008047;28;20125;-69
2023/07/07 13:10:33;;;;;;;132.27;125.63;;;;;;;;;;5011509;28;20041;-69
2023/07/07 13:13:17;;;;;;;151.90;144.20;;;;;;;;;;5008177;28;20053;-68
2023/07/07 13:15:42;;;;;;;148.95;141.25;;;;;;;;;;5011643;28;20600;-68
2023/07/07 13:18:07;;;;;;;155.15;147.35;;;;;;;;;;5013185;28;20041;-68
2023/07/07 13:20:38;;;;;;;166.18;157.95;;;;;;;;;;5011012;28;20036;-69
2023/07/07 13:23:15;;;;;;;163.13;154.88;;;;;;;;;;5011831;28;20040;-68
2023/07/07 13:25:46;;;;;;;161.20;153.15;;;;;;;;;;5011985;28;20034;-68
2023/07/07 13:28:13;;;;;;;160.90;152.90;;;;;;;;;;5015210;28;20033;-68
2023/07/07 13:30:44;;;;;;;173.52;164.95;;;;;;;;;;5008709;28;20041;-70
2023/07/07 13:33:16;;;;;;;166.15;157.93;;;;;;;;;;5011284;28;20040;-68
2023/07/07 13:35:46;;;;;;;172.23;163.63;;;;;;;;;;5014497;28;20068;-67
2023/07/07 13:38:15;;;;;;;176.77;168.07;;;;;;;;;;5011126;28;20175;-70
2023/07/07 13:40:41;;;;;;;169.27;160.90;;;;;;;;;;5011745;28;20573;-68
2023/07/07 13:43:22;;;;;;;175.55;166.73;;;;;;;;;;4997113;28;20037;-69
2023/07/07 13:45:48;;;;;;;170.00;161.55;;;;;;;;;;5012693;28;20532;-69
2023/07/07 13:48:20;;;;;;;185.20;175.80;;;;;;;;;;5017577;28;20097;-70
2023/07/07 13:50:45;;;;;;;182.00;173.02;;;;;;;;;;5015594;28;20194;-70
2023/07/07 13:53:10;;;;;;;192.32;182.80;;;;;;;;;;5016707;28;20040;-69
2023/07/07 13:55:37;;;;;;;213.80;203.30;;;;;;;;;;5014066;28;20025;-69
2023/07/07 13:58:08;;;;;;;232.52;221.15;;;;;;;;;;5016167;28;20128;-69
2023/07/07 14:00:36;;;;;;;198.65;188.85;;;;;;;;;;5012010;28;20049;-69
2023/07/07 14:03:20;;;;;;;200.10;190.20;;;;;;;;;;5014297;28;20160;-70
2023/07/07 14:05:48;;;;;;;216.73;205.60;;;;;;;;;;5014935;28;20364;-70
2023/07/07 14:08:20;;;;;;;228.38;217.00;;;;;;;;;;5017011;28;20025;-69
2023/07/07 14:10:51;;;;;;;214.88;204.30;;;;;;;;;;5017071;28;20037;-70
2023/07/07 14:13:20;;;;;;;219.02;208.23;;;;;;;;;;5016256;28;20033;-68
2023/07/07 14:15:55;;;;;;;225.35;213.93;;;;;;;;;;5014784;28;20038;-66
2023/07/07 14:18:29;;;;;;;234.13;222.60;;;;;;;;;;5013432;28;20522;-69
2023/07/07 14:20:56;;;;;;;241.75;229.90;;;;;;;;;;5016060;28;20038;-67
2023/07/07 14:23:22;;;;;;;236.70;224.77;;;;;;;;;;5016683;28;20449;-69
2023/07/07 14:25:53;;;;;;;210.93;200.45;;;;;;;;;;5017326;28;20033;-69
2023/07/07 14:28:32;;;;;;;205.35;195.20;;;;;;;;;;5015251;28;20061;-70
2023/07/07 14:31:01;;;;;;;211.77;201.38;;;;;;;;;;5017808;28;20587;-70